• Join FlightAware (Why Join?)
  • Login
  • US Flag 
08:39AM EST


 

Airport Tracker/Info


-or-


 

Live Flight TrackerFlight Track Log ✈ ANA176 ✈ 09-May-2013 ✈ VHHH / HKG - RJBB / KIX

Flight Track Log - Related Links

Times and Time Zones

All times are in EDT time to prevent confusion due to time zone crossing. See the ANA176 flight status page for this flight to view local times or setup timezone preferences in your user account.

Time Position Orientation Groundspeed Altitude Reporting Facility
EDT Latitude Longitude Course Direction KTS MPH feet Rate Location/Type
03:47AM 22.8419 114.6669 52° Northeast  Level Estimated
03:48AM 22.9177 114.7749 53° Northeast  Level Estimated
03:49AM 22.9935 114.8830 53° Northeast  Level Estimated
03:50AM 23.0692 114.9912 53° Northeast  Level Estimated
03:51AM 23.1448 115.0995 53° Northeast  Level Estimated
03:52AM 23.2204 115.2079 53° Northeast  Level Estimated
03:53AM 23.2959 115.3165 53° Northeast  Level Estimated
03:54AM 23.3713 115.4252 53° Northeast  Level Estimated
03:55AM 23.4466 115.5340 53° Northeast  Level Estimated
03:56AM 23.5219 115.6429 53° Northeast  Level Estimated
03:57AM 23.5971 115.7520 53° Northeast  Level Estimated
03:58AM 23.6722 115.8612 53° Northeast  Level Estimated
03:59AM 23.7472 115.9705 53° Northeast  Level Estimated
04:00AM 23.8221 116.0799 53° Northeast  Level Estimated
04:01AM 23.8970 116.1895 53° Northeast  Level Estimated
04:02AM 23.9718 116.2992 53° Northeast  Level Estimated
04:03AM 24.0465 116.4090 53° Northeast  Level Estimated
04:04AM 24.1212 116.5189 53° Northeast  Level Estimated
04:05AM 24.1957 116.6290 53° Northeast  Level Estimated
04:06AM 24.2702 116.7392 53° Northeast  Level Estimated
04:07AM 24.3446 116.8495 53° Northeast  Level Estimated
04:08AM 24.4189 116.9600 54° Northeast  Level Estimated
04:09AM 24.4932 117.0706 54° Northeast  Level Estimated
04:10AM 24.5673 117.1813 54° Northeast  Level Estimated
04:11AM 24.6414 117.2921 54° Northeast  Level Estimated
04:12AM 24.7154 117.4031 54° Northeast  Level Estimated
04:13AM 24.7893 117.5142 54° Northeast  Level Estimated
04:14AM 24.8632 117.6255 54° Northeast  Level Estimated
04:15AM 24.9369 117.7369 54° Northeast  Level Estimated
04:16AM 25.0106 117.8484 54° Northeast  Level Estimated
04:17AM 25.0842 117.9600 54° Northeast  Level Estimated
04:18AM 25.1577 118.0718 54° Northeast  Level Estimated
04:19AM 25.2311 118.1837 54° Northeast  Level Estimated
04:20AM 25.3044 118.2958 54° Northeast  Level Estimated
04:21AM 25.3777 118.4080 54° Northeast  Level Estimated
04:22AM 25.4508 118.5203 54° Northeast  Level Estimated
04:23AM 25.5239 118.6327 54° Northeast  Level Estimated
04:24AM 25.5969 118.7453 54° Northeast  Level Estimated
04:25AM 25.6698 118.8581 54° Northeast  Level Estimated
04:26AM 25.7426 118.9709 54° Northeast  Level Estimated
04:27AM 25.8154 119.0839 54° Northeast  Level Estimated
04:28AM 25.8880 119.1971 54° Northeast  Level Estimated
04:29AM 25.9606 119.3104 55° Northeast  Level Estimated
04:30AM 26.0331 119.4238 55° Northeast  Level Estimated
04:31AM 26.1054 119.5374 55° Northeast  Level Estimated
04:32AM 26.1777 119.6511 55° Northeast  Level Estimated
04:33AM 26.2499 119.7650 55° Northeast  Level Estimated
04:34AM 26.3220 119.8789 55° Northeast  Level Estimated
04:35AM 26.3941 119.9931 55° Northeast  Level Estimated
04:36AM 26.4660 120.1074 55° Northeast  Level Estimated
04:37AM 26.5378 120.2218 55° Northeast  Level Estimated
04:38AM 26.6096 120.3363 55° Northeast  Level Estimated
04:39AM 26.6812 120.4510 55° Northeast  Level Estimated
04:40AM 26.7528 120.5659 55° Northeast  Level Estimated
04:41AM 26.8243 120.6809 55° Northeast  Level Estimated
04:42AM 26.8957 120.7960 55° Northeast  Level Estimated
04:43AM 26.9669 120.9113 55° Northeast  Level Estimated
04:44AM 27.0381 121.0267 55° Northeast  Level Estimated
04:45AM 27.1092 121.1423 55° Northeast  Level Estimated
04:46AM 27.1802 121.2580 55° Northeast  Level Estimated
04:47AM 27.2512 121.3739 55° Northeast  Level Estimated
04:48AM 27.3220 121.4899 55° Northeast  Level Estimated
04:49AM 27.3927 121.6061 56° Northeast  Level Estimated
04:50AM 27.4633 121.7224 56° Northeast  Level Estimated
04:51AM 27.5338 121.8389 56° Northeast  Level Estimated
04:52AM 27.6042 121.9555 56° Northeast  Level Estimated
04:53AM 27.6746 122.0722 56° Northeast  Level Estimated
04:54AM 27.7448 122.1891 56° Northeast  Level Estimated
04:55AM 27.8149 122.3062 56° Northeast  Level Estimated
04:56AM 27.8850 122.4234 56° Northeast  Level Estimated
04:57AM 27.9549 122.5408 56° Northeast  Level Estimated
04:58AM 28.0247 122.6583 56° Northeast  Level Estimated
04:59AM 28.0945 122.7760 56° Northeast  Level Estimated
05:00AM 28.1641 122.8938 56° Northeast  Level Estimated
05:01AM 28.2336 123.0118 56° Northeast  Level Estimated
05:02AM 28.3030 123.1299 56° Northeast  Level Estimated
05:03AM 28.3724 123.2482 56° Northeast  Level Estimated
05:04AM 28.4416 123.3667 56° Northeast  Level Estimated
05:05AM 28.5107 123.4853 56° Northeast  Level Estimated
05:06AM 28.5798 123.6040 56° Northeast  Level Estimated
05:07AM 28.6487 123.7229 57° Northeast  Level Estimated
05:08AM 28.7175 123.8420 57° Northeast  Level Estimated
05:09AM 28.7862 123.9612 57° Northeast  Level Estimated
05:10AM 28.8548 124.0806 57° Northeast  Level Estimated
05:11AM 28.9233 124.2001 57° Northeast  Level Estimated
05:12AM 28.9917 124.3198 57° Northeast  Level Estimated
05:13AM 29.0600 124.4397 57° Northeast  Level Estimated
05:14AM 29.1282 124.5597 57° Northeast  Level Estimated
05:15AM 29.1962 124.6798 57° Northeast  Level Estimated
05:16AM 29.2642 124.8002 57° Northeast  Level Estimated
05:17AM 29.3321 124.9207 57° Northeast  Level Estimated
05:18AM 29.3998 125.0413 57° Northeast  Level Estimated
05:19AM 29.4674 125.1621 57° Northeast  Level Estimated
05:20AM 29.5350 125.2831 57° Northeast  Level Estimated
05:21AM 29.6024 125.4042 57° Northeast  Level Estimated
05:22AM 29.6697 125.5255 57° Northeast  Level Estimated
05:23AM 29.7369 125.6470 57° Northeast  Level Estimated
05:24AM 29.8040 125.7686 58° Northeast  Level Estimated
05:25AM 29.8710 125.8904 58° Northeast  Level Estimated
05:26AM 29.9379 126.0123 58° Northeast  Level Estimated
05:27AM 30.0046 126.1344 58° Northeast  Level Estimated
05:28AM 30.0713 126.2567 58° Northeast  Level Estimated
05:29AM 30.1378 126.3791 58° Northeast  Level Estimated
05:30AM 30.2042 126.5017 58° Northeast  Level Estimated
05:31AM 30.2705 126.6245 58° Northeast  Level Estimated
05:32AM 30.3367 126.7474 58° Northeast  Level Estimated
05:33AM 30.4028 126.8705 58° Northeast  Level Estimated
05:34AM 30.4687 126.9938 58° Northeast  Level Estimated
05:35AM 30.5346 127.1172 58° Northeast  Level Estimated
05:36AM 30.6003 127.2408 58° Northeast  Level Estimated
05:37AM 30.6659 127.3646 58° Northeast  Level Estimated
05:38AM 30.7314 127.4885 58° Northeast  Level Estimated
05:39AM 30.7967 127.6127 58° Northeast  Level Estimated
05:40AM 30.8620 127.7369 59° Northeast  Level Estimated
05:41AM 30.9271 127.8614 59° Northeast  Level Estimated
05:42AM 30.9921 127.9860 59° Northeast  Level Estimated
05:43AM 31.0570 128.1108 59° Northeast  Level Estimated
05:44AM 31.1218 128.2357 59° Northeast  Level Estimated
05:45AM 31.1864 128.3608 59° Northeast  Level Estimated
05:46AM 31.2510 128.4861 59° Northeast  Level Estimated
05:47AM 31.3154 128.6116 59° Northeast  Level Estimated
05:48AM 31.3797 128.7372 59° Northeast  Level Estimated
05:49AM 31.4438 128.8630 59° Northeast  Level Estimated
05:50AM 31.5079 128.9890 59° Northeast  Level Estimated
05:51AM 31.5718 129.1152 59° Northeast  Level Estimated
05:52AM 31.6356 129.2415 59° Northeast  Level Estimated
05:53AM 31.6993 129.3680 59° Northeast  Level Estimated
05:54AM 31.7628 129.4947 59° Northeast  Level Estimated
05:55AM 31.8263 129.6215 60° Northeast  Level Estimated
05:56AM 31.8895 129.7485 60° Northeast  Level Estimated
05:57AM 31.9527 129.8757 60° Northeast  Level Estimated
05:58AM 32.0158 130.0031 60° Northeast  Level Estimated
05:59AM 32.0787 130.1307 60° Northeast  Level Estimated
06:00AM 32.1414 130.2584 60° Northeast  Level Estimated
06:01AM 32.2041 130.3863 60° Northeast  Level Estimated
06:02AM 32.2666 130.5143 60° Northeast  Level Estimated
06:03AM 32.3290 130.6426 60° Northeast  Level Estimated
06:04AM 32.3913 130.7710 60° Northeast  Level Estimated
06:05AM 32.4534 130.8996 60° Northeast  Level Estimated
06:06AM 32.5155 131.0284 60° Northeast  Level Estimated
06:07AM 32.5773 131.1574 60° Northeast  Level Estimated
06:08AM 32.6391 131.2865 60° Northeast  Level Estimated
06:09AM 32.7007 131.4158 60° Northeast  Level Estimated
06:10AM 32.7622 131.5453 61° Northeast  Level Estimated
06:11AM 32.8235 131.6750 61° Northeast  Level Estimated
06:12AM 32.8847 131.8048 61° Northeast  Level Estimated
06:13AM 32.9458 131.9349 61° Northeast  Level Estimated
06:14AM 33.0067 132.0651 61° Northeast  Level Estimated
06:15AM 33.0676 132.1955 61° Northeast  Level Estimated
06:16AM 33.1282 132.3260 61° Northeast  Level Estimated
06:17AM 33.1888 132.4568 61° Northeast  Level Estimated
06:18AM 33.2491 132.5877 61° Northeast  Level Estimated
06:19AM 33.3094 132.7188 61° Northeast  Level Estimated
06:20AM 33.3695 132.8501 61° Northeast  Level Estimated
06:21AM 33.4295 132.9816 61° Northeast  Level Estimated
06:22AM 33.4893 133.1133 61° Northeast  Level Estimated
06:23AM 33.5491 133.2451 61° Northeast  Level Estimated
06:24AM 33.6086 133.3771 62° Northeast  Level Estimated
06:25AM 33.6680 133.5093 62° Northeast  Level Estimated
06:26AM 33.7273 133.6417 62° Northeast  Level Estimated
06:27AM 33.7865 133.7743 62° Northeast  Level Estimated
06:28AM 33.8455 133.9070 62° Northeast  Level Estimated
06:29AM 33.9043 134.0400 62° Northeast  Level Estimated
06:30AM 33.9630 134.1731 62° Northeast  Level Estimated
06:31AM 34.0216 134.3064 62° Northeast  Level Estimated
06:32AM 34.0800 134.4399 62° Northeast  Level Estimated
06:33AM 34.1383 134.5735 62° Northeast  Level Estimated
06:34AM 34.1965 134.7074 62° Northeast  Level Estimated
06:35AM 34.2545 134.8414 62° Northeast  Level Estimated
06:36AM 34.3123 134.9756 62° Northeast  Level Estimated
06:37AM 34.3700 135.1101 62° Northeast  Level Estimated
06:38AM 34.4273 135.2441 63° Northeast  Level Estimated
06:39AM 34.4273 135.2441 158° South  Level Estimated
06:40AM 34.4273 135.2441 158° South  Level Estimated
06:41AM 34.4273 135.2441 158° South  Level Estimated
06:42AM 34.4273 135.2441 158° South  Level Estimated
06:43AM 34.4273 135.2441 158° South  Level Estimated
06:44AM 34.4273 135.2441 158° South  Level Estimated
06:45AM 34.4273 135.2441 158° South  Level Estimated
06:46AM 34.4273 135.2441 158° South  Level Estimated
06:47AM 34.4273 135.2441 158° South  Level Estimated
06:48AM 34.4273 135.2441 158° South  Level Estimated
06:49AM 34.4273 135.2441 158° South  Level Estimated
06:50AM 34.4273 135.2441 158° South  Level Estimated
06:51AM 34.4273 135.2441 158° South  Level Estimated
06:52AM 34.4273 135.2441 158° South  Level Estimated
06:53AM 34.4273 135.2441 158° South  Level Estimated
06:54AM 34.4273 135.2441 158° South  Level Estimated